createdAt,value
2022-10-02T00:00:01.762Z,3
2022-10-02T00:05:02.128Z,4
2022-10-02T00:10:01.630Z,3
2022-10-02T00:15:02.100Z,4
2022-10-02T00:20:01.639Z,4
2022-10-02T00:25:01.976Z,2
2022-10-02T00:30:01.440Z,3
2022-10-02T00:35:01.775Z,2
2022-10-02T00:40:02.277Z,3
2022-10-02T00:45:01.620Z,2
2022-10-02T00:50:01.981Z,3
2022-10-02T00:55:01.317Z,2
2022-10-02T01:00:01.809Z,3
2022-10-02T01:05:02.275Z,3
2022-10-02T01:10:01.798Z,2
2022-10-02T01:15:02.178Z,2
2022-10-02T01:20:01.601Z,1
2022-10-02T01:25:02.065Z,2
2022-10-02T01:30:01.451Z,2
2022-10-02T01:35:01.801Z,4
2022-10-02T01:40:02.309Z,3
2022-10-02T01:45:01.782Z,2
2022-10-02T01:50:02.108Z,3
2022-10-02T01:55:01.570Z,2
2022-10-02T02:00:01.950Z,2
2022-10-02T02:05:02.298Z,4
2022-10-02T02:10:01.691Z,4
2022-10-02T02:15:02.225Z,3
2022-10-02T02:20:01.786Z,6
2022-10-02T02:25:02.136Z,6
2022-10-02T02:30:01.617Z,3
2022-10-02T02:35:01.965Z,4
2022-10-02T02:40:01.352Z,3
2022-10-02T02:45:01.712Z,2
2022-10-02T02:50:02.067Z,3
2022-10-02T02:55:01.539Z,3
2022-10-02T03:00:01.901Z,2
2022-10-02T03:05:02.267Z,2
2022-10-02T03:10:01.643Z,3
2022-10-02T03:15:02.016Z,3
2022-10-02T03:20:01.454Z,2
2022-10-02T03:25:01.817Z,2
2022-10-02T03:30:02.191Z,4
2022-10-02T03:35:01.592Z,2
2022-10-02T03:40:02.102Z,3
2022-10-02T03:45:01.490Z,2
2022-10-02T03:50:01.966Z,3
2022-10-02T03:55:01.347Z,5
2022-10-02T04:00:01.840Z,2
2022-10-02T04:05:02.303Z,3
2022-10-02T04:10:01.680Z,3
2022-10-02T04:15:02.058Z,2
2022-10-02T04:20:01.477Z,2
2022-10-02T04:25:01.829Z,3
2022-10-02T04:30:01.832Z,1
2022-10-02T04:35:02.289Z,2
2022-10-02T04:40:01.665Z,2
2022-10-02T04:45:02.038Z,1
2022-10-02T04:50:01.479Z,2
2022-10-02T04:55:01.817Z,3
2022-10-02T05:00:02.206Z,2
2022-10-02T05:05:01.545Z,2
2022-10-02T05:10:02.053Z,3
2022-10-02T05:15:01.431Z,3
2022-10-02T05:20:01.862Z,1
2022-10-02T05:25:02.327Z,2
2022-10-02T05:30:01.796Z,2
2022-10-02T05:35:02.149Z,1
2022-10-02T05:40:01.530Z,1
2022-10-02T05:45:02.015Z,2
2022-10-02T05:50:01.479Z,2
2022-10-02T05:55:01.938Z,2
2022-10-02T06:00:02.311Z,2
2022-10-02T06:05:01.639Z,2
2022-10-02T06:10:02.144Z,3
2022-10-02T06:15:01.612Z,2
2022-10-02T06:20:03.552Z,2
2022-10-02T06:25:02.253Z,1
2022-10-02T06:30:01.726Z,2
2022-10-02T06:35:02.199Z,2
2022-10-02T06:40:01.570Z,2
2022-10-02T06:45:02.054Z,1
2022-10-02T06:50:01.403Z,3
2022-10-02T06:55:01.865Z,2
2022-10-02T07:00:02.226Z,2
2022-10-02T07:05:01.696Z,3
2022-10-02T07:10:02.249Z,2
2022-10-02T07:15:01.604Z,4
2022-10-02T07:20:02.025Z,2
2022-10-02T07:25:01.517Z,2
2022-10-02T07:30:01.871Z,1
2022-10-02T07:35:02.210Z,33
2022-10-02T07:40:01.716Z,42
2022-10-02T07:45:02.202Z,82
2022-10-02T07:50:01.671Z,72
2022-10-02T07:55:02.141Z,69
2022-10-02T08:00:01.619Z,67
2022-10-02T08:05:02.083Z,52
2022-10-02T08:10:01.581Z,38
2022-10-02T08:15:02.059Z,37
2022-10-02T08:20:01.479Z,37
2022-10-02T08:25:01.976Z,28
2022-10-02T08:30:01.457Z,21
2022-10-02T08:35:01.827Z,20
2022-10-02T08:40:02.325Z,16
2022-10-02T08:45:01.803Z,18
2022-10-02T08:50:02.269Z,13
2022-10-02T08:55:01.610Z,14
2022-10-02T09:00:01.962Z,8
2022-10-02T09:05:01.434Z,12
2022-10-02T09:10:01.818Z,12
2022-10-02T09:15:02.161Z,15
2022-10-02T09:20:01.576Z,15
2022-10-02T09:25:02.035Z,16
2022-10-02T09:30:01.536Z,18
2022-10-02T09:35:02.031Z,24
2022-10-02T09:40:01.581Z,21
2022-10-02T09:45:02.199Z,20
2022-10-02T09:50:01.716Z,19
2022-10-02T09:55:02.046Z,21
2022-10-02T10:00:01.403Z,14
2022-10-02T10:05:06.203Z,15
2022-10-02T10:10:02.208Z,14
2022-10-02T10:15:01.747Z,15
2022-10-02T10:20:02.062Z,12
2022-10-02T10:25:01.527Z,12
2022-10-02T10:30:01.996Z,11
2022-10-02T10:35:01.467Z,9
2022-10-02T10:40:01.851Z,8
2022-10-02T10:45:02.330Z,13
2022-10-02T10:50:01.853Z,9
2022-10-02T10:55:02.319Z,9
2022-10-02T11:00:01.708Z,11
2022-10-02T11:05:02.047Z,8
2022-10-02T11:10:01.426Z,5
2022-10-02T11:15:01.898Z,7
2022-10-02T11:20:01.439Z,5
2022-10-02T11:25:01.778Z,6
2022-10-02T11:30:02.132Z,7
2022-10-02T11:35:01.599Z,7
2022-10-02T11:40:02.102Z,7
2022-10-02T11:45:01.593Z,7
2022-10-02T11:50:01.956Z,7
2022-10-02T11:55:01.433Z,7
2022-10-02T12:00:01.942Z,7
2022-10-02T12:05:02.424Z,7
2022-10-02T12:10:01.916Z,7
2022-10-02T12:15:02.397Z,7
2022-10-02T12:20:01.937Z,7
2022-10-02T12:25:02.278Z,7
2022-10-02T12:30:01.752Z,7
2022-10-02T12:35:02.216Z,7
2022-10-02T12:40:01.705Z,7
2022-10-02T12:45:02.181Z,7
2022-10-02T12:50:01.649Z,7
2022-10-02T12:55:02.106Z,7
2022-10-02T13:00:01.586Z,7
2022-10-02T13:05:02.065Z,7
2022-10-02T13:10:01.450Z,7
2022-10-02T13:15:01.949Z,7
2022-10-02T13:20:01.502Z,7
2022-10-02T13:25:01.857Z,7
2022-10-02T13:30:02.327Z,7
2022-10-02T13:35:01.674Z,7
2022-10-02T13:40:02.076Z,7
2022-10-02T13:45:01.555Z,7
2022-10-02T13:50:02.022Z,7
2022-10-02T13:55:01.392Z,7
2022-10-02T14:00:01.878Z,7
2022-10-02T14:05:02.297Z,7
2022-10-02T14:10:01.800Z,7
2022-10-02T14:15:02.279Z,7
2022-10-02T14:20:01.829Z,7
2022-10-02T14:25:02.180Z,7
2022-10-02T14:30:01.654Z,7
2022-10-02T14:35:02.136Z,7
2022-10-02T14:40:01.535Z,7
2022-10-02T14:45:02.026Z,7
2022-10-02T14:50:01.387Z,7
2022-10-02T14:55:01.735Z,7
2022-10-02T15:00:02.223Z,7
2022-10-02T15:05:04.353Z,7
2022-10-02T15:10:02.317Z,7
2022-10-02T15:15:01.910Z,7
2022-10-02T15:20:01.529Z,7
2022-10-02T15:25:02.014Z,7
2022-10-02T15:30:01.545Z,7
2022-10-02T15:35:02.067Z,7
2022-10-02T15:40:01.775Z,7
2022-10-02T15:45:02.336Z,7
2022-10-02T15:50:01.800Z,7
2022-10-02T15:55:02.268Z,7
2022-10-02T16:00:01.871Z,7
2022-10-02T16:05:02.349Z,7
2022-10-02T16:10:01.878Z,7
2022-10-02T16:15:02.356Z,7
2022-10-02T16:20:01.898Z,7
2022-10-02T16:25:02.355Z,7
2022-10-02T16:30:01.695Z,7
2022-10-02T16:35:02.155Z,7
2022-10-02T16:40:01.652Z,7
2022-10-02T16:45:02.141Z,7
2022-10-02T16:50:01.602Z,7
2022-10-02T16:55:01.946Z,7
2022-10-02T17:00:02.299Z,7
2022-10-02T17:05:01.800Z,7
2022-10-02T17:10:02.208Z,7
2022-10-02T17:15:01.695Z,7
2022-10-02T17:20:02.145Z,7
2022-10-02T17:25:01.613Z,7
2022-10-02T17:30:01.981Z,7
2022-10-02T17:35:02.976Z,7
2022-10-02T17:40:01.355Z,7
2022-10-02T17:45:01.851Z,7
2022-10-02T17:50:02.313Z,7
2022-10-02T17:55:01.783Z,7
2022-10-02T18:00:04.117Z,7
2022-10-02T18:05:01.937Z,7
2022-10-02T18:10:01.386Z,7
2022-10-02T18:15:01.868Z,7
2022-10-02T18:20:01.361Z,7
2022-10-02T18:25:01.720Z,7
2022-10-02T18:30:02.195Z,7
2022-10-02T18:35:01.659Z,7
2022-10-02T18:40:06.835Z,7
2022-10-02T18:45:01.805Z,7
2022-10-02T18:50:02.266Z,7
2022-10-02T18:55:01.607Z,7
2022-10-02T19:00:02.131Z,7
2022-10-02T19:05:01.610Z,7
2022-10-02T19:10:01.991Z,7
2022-10-02T19:15:01.368Z,7
2022-10-02T19:20:01.915Z,7
2022-10-02T19:25:02.375Z,7
2022-10-02T19:30:01.866Z,7
2022-10-02T19:35:02.330Z,7
2022-10-02T19:40:01.834Z,7
2022-10-02T19:45:02.309Z,7
2022-10-02T19:50:01.641Z,7
2022-10-02T19:55:02.107Z,7
2022-10-02T20:00:01.471Z,7
2022-10-02T20:05:01.867Z,168
2022-10-02T20:10:02.370Z,23
2022-10-02T20:15:01.851Z,15
2022-10-02T20:20:02.415Z,157
2022-10-02T20:25:01.763Z,191
2022-10-02T20:30:02.241Z,24
2022-10-02T20:35:01.707Z,11
2022-10-02T20:40:02.570Z,15
2022-10-02T20:45:02.249Z,13
2022-10-02T20:50:01.596Z,14
2022-10-02T20:55:02.056Z,24
2022-10-02T21:00:01.553Z,19
2022-10-02T21:05:02.475Z,18
2022-10-02T21:10:01.875Z,21
2022-10-02T21:15:02.359Z,18
2022-10-02T21:20:01.780Z,31
2022-10-02T21:25:02.261Z,19
2022-10-02T21:30:01.626Z,30
2022-10-02T21:35:02.070Z,16
2022-10-02T21:40:01.588Z,16
2022-10-02T21:45:04.275Z,33
2022-10-02T21:50:01.983Z,26
2022-10-02T21:55:01.454Z,23
2022-10-02T22:00:01.970Z,21
2022-10-02T22:05:01.922Z,25
2022-10-02T22:10:01.448Z,26
2022-10-02T22:15:01.981Z,29
2022-10-02T22:20:01.765Z,22
2022-10-02T22:25:02.272Z,29
2022-10-02T22:30:01.788Z,26
2022-10-02T22:35:02.271Z,27
2022-10-02T22:40:01.775Z,31
2022-10-02T22:45:02.133Z,35
2022-10-02T22:50:01.473Z,36
2022-10-02T22:55:01.955Z,33
2022-10-02T23:00:01.439Z,28
2022-10-02T23:05:01.801Z,37
2022-10-02T23:10:02.201Z,39
2022-10-02T23:15:01.678Z,42
2022-10-02T23:20:02.213Z,40
2022-10-02T23:25:01.548Z,35
2022-10-02T23:30:01.894Z,43
2022-10-02T23:35:02.357Z,50
2022-10-02T23:40:01.858Z,51
2022-10-02T23:45:02.250Z,73
2022-10-02T23:50:01.615Z,77
2022-10-02T23:55:01.969Z,72
